Time;durP1;ratioP1;P1;durP2;ratioP2;P2;SDS_P1;SDS_P2;PMS_P1;PMS_P2;Temp;Humidity;BMP_temperature;BMP_pressure;BME280_temperature;BME280_humidity;BME280_pressure;Samples;Min_cycle;Max_cycle;Signal;HPM_P1;HPM_P2
2023/01/25 00:01:25;;;;;;;28.75;15.63;;;1.10;99.90;;;;;;5084655;28;20065;-74
2023/01/25 00:08:11;;;;;;;;;;;;;;;;;;;;;
2023/01/25 00:10:29;;;;;;;31.83;16.77;;;0.60;99.90;;;;;;5090580;28;20237;-75
2023/01/25 00:12:57;;;;;;;27.90;15.95;;;1.20;99.90;;;;;;5074730;28;20353;-76
2023/01/25 00:16:10;;;;;;;30.83;16.05;;;1.60;99.90;;;;;;5071450;28;20096;-74
2023/01/25 00:18:41;;;;;;;29.02;15.93;;;0.20;99.90;;;;;;5076812;28;20062;-75
2023/01/25 00:21:22;;;;;;;26.10;14.98;;;-1.00;99.90;;;;;;5099961;28;20200;-74
2023/01/25 00:23:48;;;;;;;28.52;15.60;;;1.50;99.90;;;;;;5079722;28;20042;-74
2023/01/25 00:26:47;;;;;;;28.50;15.43;;;0.70;99.90;;;;;;5080502;28;20254;-75
2023/01/25 00:29:13;;;;;;;34.53;19.52;;;1.20;99.90;;;;;;5052237;28;20241;-74
2023/01/25 00:32:17;;;;;;;33.63;18.92;;;0.90;99.90;;;;;;5077759;28;20105;-74
2023/01/25 00:34:50;;;;;;;30.05;16.58;;;0.70;99.90;;;;;;5002506;28;20109;-74
2023/01/25 00:37:45;;;;;;;35.78;19.00;;;0.70;99.90;;;;;;5078551;28;20040;-75
2023/01/25 00:40:14;;;;;;;34.83;18.10;;;0.80;99.90;;;;;;5101590;28;20073;-75
2023/01/25 00:42:48;;;;;;;36.20;18.30;;;2.50;99.90;;;;;;5099069;28;20369;-74
2023/01/25 00:45:22;;;;;;;32.97;17.38;;;0.60;99.90;;;;;;5084828;28;20278;-75
2023/01/25 00:47:55;;;;;;;33.97;18.33;;;0.80;99.90;;;;;;5065767;28;20089;-75
2023/01/25 00:50:21;;;;;;;35.78;18.83;;;0.70;99.90;;;;;;5101028;28;20380;-76
2023/01/25 00:52:47;;;;;;;41.03;18.55;;;0.70;99.90;;;;;;5081700;28;20080;-75
2023/01/25 00:55:12;;;;;;;31.85;16.38;;;3.20;99.90;;;;;;5050749;28;20035;-75
2023/01/25 00:57:41;;;;;;;33.85;17.80;;;0.70;99.90;;;;;;5054468;28;20043;-75
2023/01/25 01:00:07;;;;;;;28.30;16.27;;;0.70;99.90;;;;;;5094033;28;20035;-75
2023/01/25 01:02:33;;;;;;;32.13;16.77;;;0.80;99.90;;;;;;5100737;28;20138;-74
2023/01/25 01:04:59;;;;;;;35.72;17.77;;;0.70;99.90;;;;;;5082471;28;20058;-75
2023/01/25 01:07:24;;;;;;;31.48;17.40;;;2.70;99.90;;;;;;5099031;28;20121;-75
2023/01/25 01:09:50;;;;;;;28.33;16.67;;;2.30;99.90;;;;;;5099966;28;20035;-76
2023/01/25 01:12:47;;;;;;;30.50;15.70;;;1.70;99.90;;;;;;5067923;28;20043;-76
2023/01/25 01:15:15;;;;;;;36.17;19.83;;;2.20;99.90;;;;;;5060009;28;20039;-76
2023/01/25 01:17:41;;;;;;;36.58;17.83;;;-0.50;99.90;;;;;;5096743;28;20236;-76
2023/01/25 01:20:30;;;;;;;35.45;19.52;;;2.30;99.90;;;;;;5083277;28;20050;-76
2023/01/25 01:22:56;;;;;;;33.58;17.38;;;0.70;99.90;;;;;;5082892;28;20105;-76
2023/01/25 01:25:31;;;;;;;28.85;16.38;;;0.80;99.90;;;;;;5067783;28;20094;-76
2023/01/25 01:27:57;;;;;;;35.47;19.00;;;3.20;99.90;;;;;;5086133;28;20215;-75
2023/01/25 01:30:23;;;;;;;39.58;19.10;;;0.80;99.90;;;;;;5086147;28;20040;-74
2023/01/25 01:37:33;;;;;;;;;;;;;;;;;;;;;
2023/01/25 01:40:15;;;;;;;34.45;17.83;;;3.60;99.90;;;;;;5051364;28;20051;-73
2023/01/25 01:43:00;;;;;;;32.30;17.05;;;0.70;99.90;;;;;;5102799;28;20031;-74
2023/01/25 01:45:49;;;;;;;36.40;17.65;;;-1.60;99.90;;;;;;5103633;28;20035;-75
2023/01/25 01:48:40;;;;;;;32.25;16.35;;;0.60;99.90;;;;;;5104961;28;20046;-76
2023/01/25 01:51:14;;;;;;;34.08;17.35;;;0.60;99.90;;;;;;5087063;28;20098;-75
2023/01/25 01:53:59;;;;;;;32.13;15.77;;;0.50;99.90;;;;;;5081993;28;20039;-75
2023/01/25 01:56:34;;;;;;;34.55;17.42;;;0.50;99.90;;;;;;5101453;28;20034;-75
2023/01/25 02:02:19;;;;;;;29.33;15.68;;;;;;;;;;5083851;28;20288;-76
2023/01/25 02:04:53;;;;;;;31.85;15.85;;;0.60;99.90;;;;;;5102481;28;20035;-75
2023/01/25 02:07:21;;;;;;;38.75;19.08;;;-1.70;99.90;;;;;;5097682;28;20035;-75
2023/01/25 02:09:53;;;;;;;33.58;16.95;;;-0.60;99.90;;;;;;5086581;28;20036;-75
2023/01/25 02:12:38;;;;;;;33.08;16.75;;;0.50;99.90;;;;;;5102623;28;20031;-76
2023/01/25 02:15:04;;;;;;;;;;;0.40;99.90;;;;;;5086097;28;20112;-76
2023/01/25 02:21:47;;;;;;;35.15;16.95;;;1.90;99.90;;;;;;5010997;28;20283;-75
2023/01/25 02:24:29;;;;;;;38.70;20.65;;;0.40;99.90;;;;;;5054461;28;20039;-75
2023/01/25 02:26:55;;;;;;;40.10;19.95;;;0.50;99.90;;;;;;5085906;28;20080;-74
2023/01/25 02:29:23;;;;;;;35.95;16.95;;;0.30;99.90;;;;;;5085354;28;20047;-73
2023/01/25 02:31:51;;;;;;;38.05;19.67;;;0.80;99.90;;;;;;5103626;28;20057;-74
2023/01/25 02:34:18;;;;;;;41.72;20.25;;;0.10;99.90;;;;;;5069324;28;20027;-75
2023/01/25 02:36:43;;;;;;;20.08;9.68;;;3.10;99.90;;;;;;5101577;28;20536;-75
2023/01/25 02:39:17;;;;;;;39.25;19.58;;;1.30;99.90;;;;;;5103599;28;20035;-75
2023/01/25 02:41:49;;;;;;;34.83;17.98;;;2.60;99.90;;;;;;5085348;28;20380;-75
2023/01/25 02:44:26;;;;;;;41.67;19.52;;;0.40;99.90;;;;;;5100905;28;20040;-75
2023/01/25 02:46:51;;;;;;;32.50;14.85;;;1.70;99.90;;;;;;5098292;28;20030;-75
2023/01/25 02:49:18;;;;;;;35.42;18.33;;;1.60;99.90;;;;;;5083841;28;20067;-75
2023/01/25 02:51:47;;;;;;;35.95;17.85;;;1.30;99.90;;;;;;5087614;28;20106;-75
2023/01/25 02:54:15;;;;;;;41.55;19.33;;;0.20;99.90;;;;;;5086060;28;20206;-75
2023/01/25 02:56:41;;;;;;;42.50;19.83;;;2.20;99.90;;;;;;5101077;28;20045;-74
2023/01/25 02:59:13;;;;;;;44.35;19.25;;;3.20;99.90;;;;;;5065595;28;20242;-74
2023/01/25 03:01:50;;;;;;;41.95;21.25;;;0.50;99.90;;;;;;5101186;28;20040;-74
2023/01/25 03:04:31;;;;;;;;;;;;;;;;;;;;;
2023/01/25 03:07:15;;;;;;;41.35;20.15;;;0.40;99.90;;;;;;5115986;28;20249;-75
2023/01/25 03:09:43;;;;;;;42.63;20.33;;;2.20;99.90;;;;;;5068997;28;20043;-76
2023/01/25 03:12:12;;;;;;;41.55;19.10;;;0.50;99.90;;;;;;5085991;28;20052;-75
2023/01/25 03:14:43;;;;;;;44.10;22.45;;;0.60;99.90;;;;;;5085545;28;20059;-76
2023/01/25 03:17:38;;;;;;;48.10;21.75;;;0.80;99.90;;;;;;5075942;28;20050;-76
2023/01/25 03:20:17;;;;;;;44.42;21.25;;;-1.40;99.90;;;;;;5100988;28;20248;-75
2023/01/25 03:27:13;;;;;;;49.08;23.38;;;0.10;99.90;;;;;;5071720;28;20090;-75
2023/01/25 03:29:52;;;;;;;45.20;20.98;;;3.00;99.90;;;;;;5099237;28;20086;-75
2023/01/25 03:32:18;;;;;;;46.25;21.10;;;0.50;99.90;;;;;;5066925;28;20043;-75
2023/01/25 03:34:43;;;;;;;50.45;23.30;;;0.40;99.90;;;;;;5065398;28;20047;-74
2023/01/25 03:37:09;;;;;;;42.38;20.42;;;1.60;99.90;;;;;;5081826;28;20063;-75
2023/01/25 03:39:35;;;;;;;46.55;22.98;;;0.50;99.90;;;;;;5081646;28;20074;-75
2023/01/25 03:42:04;;;;;;;47.38;21.15;;;0.50;99.90;;;;;;5081486;28;20397;-75
2023/01/25 03:44:29;;;;;;;46.22;21.90;;;0.40;99.90;;;;;;5081485;28;20016;-75
2023/01/25 03:50:06;;;;;;;46.60;22.00;;;-1.30;99.90;;;;;;5098882;28;20226;-75
2023/01/25 03:52:37;;;;;;;48.05;22.10;;;0.90;99.90;;;;;;5081219;28;20086;-75
2023/01/25 03:55:08;;;;;;;46.30;21.63;;;0.40;99.90;;;;;;5097105;28;20196;-75
2023/01/25 03:57:37;;;;;;;51.17;23.80;;;0.60;99.90;;;;;;5063784;28;20040;-75
2023/01/25 04:00:03;;;;;;;52.72;23.90;;;3.20;99.90;;;;;;5065661;28;20038;-75
2023/01/25 04:02:48;;;;;;;48.15;23.33;;;0.80;99.90;;;;;;5049021;28;20081;-75
2023/01/25 04:05:20;;;;;;;52.85;24.13;;;1.80;99.90;;;;;;5093161;28;20043;-77
2023/01/25 04:07:49;;;;;;;50.10;24.13;;;0.80;99.90;;;;;;5055856;28;20089;-76
2023/01/25 04:10:51;;;;;;;53.65;23.15;;;0.50;99.90;;;;;;5075626;28;20044;-75
2023/01/25 04:13:21;;;;;;;48.72;23.33;;;0.50;99.90;;;;;;5001730;28;20034;-75
2023/01/25 04:15:47;;;;;;;45.58;21.35;;;0.20;99.90;;;;;;5065276;28;20052;-75
2023/01/25 04:18:14;;;;;;;55.33;24.30;;;3.20;99.90;;;;;;5095842;28;20056;-76
2023/01/25 04:20:40;;;;;;;57.70;26.08;;;-1.00;99.90;;;;;;5096155;28;20032;-75
2023/01/25 04:23:09;;;;;;;52.17;25.10;;;0.40;99.90;;;;;;5081186;28;20028;-76
2023/01/25 04:25:40;;;;;;;57.35;25.88;;;0.60;99.90;;;;;;5050935;28;20066;-76
2023/01/25 04:28:15;;;;;;;57.47;23.95;;;0.20;99.90;;;;;;5059675;28;20035;-76
2023/01/25 04:30:40;;;;;;;57.42;25.15;;;0.80;99.90;;;;;;5079258;28;20055;-76
2023/01/25 04:33:06;;;;;;;57.28;25.73;;;2.50;99.90;;;;;;5047959;28;20044;-76
2023/01/25 04:35:32;;;;;;;61.92;28.17;;;0.60;99.90;;;;;;5098288;28;20024;-76
2023/01/25 04:37:59;;;;;;;55.17;23.70;;;2.80;99.90;;;;;;5077548;28;20307;-76
2023/01/25 04:40:25;;;;;;;57.05;24.15;;;2.60;99.90;;;;;;5063706;28;20099;-76
2023/01/25 04:42:51;;;;;;;59.05;25.35;;;2.90;99.90;;;;;;5098649;28;20027;-76
2023/01/25 04:45:19;;;;;;;61.17;27.02;;;1.40;99.90;;;;;;5097757;28;20032;-76
2023/01/25 04:47:48;;;;;;;62.83;26.65;;;0.20;99.90;;;;;;5082066;28;20036;-76
2023/01/25 04:50:16;;;;;;;57.13;25.20;;;0.20;99.90;;;;;;5089076;28;20028;-76
2023/01/25 04:52:45;;;;;;;51.72;23.40;;;2.50;99.90;;;;;;5063849;28;20031;-76
2023/01/25 04:56:03;;;;;;;51.67;22.10;;;0.20;99.90;;;;;;5080290;28;20055;-76
2023/01/25 04:58:34;;;;;;;53.75;23.48;;;0.10;99.90;;;;;;4926832;28;20110;-76
2023/01/25 05:01:33;;;;;;;;;;;;;;;;;;;;;
2023/01/25 05:04:04;;;;;;;54.03;23.48;;;-1.50;99.90;;;;;;5096004;28;20046;-77
2023/01/25 05:06:30;;;;;;;50.33;23.15;;;0.20;99.90;;;;;;5101140;28;20028;-76
2023/01/25 05:09:04;;;;;;;54.80;23.13;;;0.50;99.90;;;;;;5082885;28;20040;-75
2023/01/25 05:12:15;;;;;;;61.67;27.00;;;0.60;99.90;;;;;;5099933;28;20108;-75
2023/01/25 05:14:53;;;;;;;55.35;24.50;;;-1.50;99.90;;;;;;5004024;28;20105;-75
2023/01/25 05:17:29;;;;;;;53.60;23.27;;;0.90;99.90;;;;;;4988365;28;20042;-75
2023/01/25 05:20:00;;;;;;;56.67;24.45;;;0.30;99.90;;;;;;5040186;28;20075;-75
2023/01/25 05:22:29;;;;;;;57.08;24.98;;;-0.30;99.90;;;;;;5101277;28;20094;-75
2023/01/25 05:27:52;;;;;;;57.90;25.80;;;-0.50;99.90;;;;;;5089423;28;20097;-75
2023/01/25 05:30:52;;;;;;;53.65;24.27;;;3.10;99.90;;;;;;5067321;28;20051;-75
2023/01/25 05:33:18;;;;;;;55.78;23.88;;;-0.10;99.90;;;;;;5082993;28;20048;-75
2023/01/25 05:35:44;;;;;;;56.25;25.15;;;0.80;99.90;;;;;;5101617;28;20071;-75
2023/01/25 05:38:09;;;;;;;64.47;27.00;;;3.30;99.90;;;;;;5082157;28;20100;-76
2023/01/25 05:40:35;;;;;;;63.75;26.38;;;0.20;99.90;;;;;;5067380;28;20689;-76
2023/01/25 05:43:01;;;;;;;59.20;26.52;;;0.40;99.90;;;;;;5082328;28;20029;-76
2023/01/25 05:45:28;;;;;;;67.85;28.10;;;0.50;99.90;;;;;;5067556;28;20024;-77
2023/01/25 05:47:57;;;;;;;68.15;28.42;;;0.20;99.90;;;;;;5083887;28;20230;-76
2023/01/25 05:50:24;;;;;;;65.28;26.88;;;1.10;99.90;;;;;;5082281;28;20040;-76
2023/01/25 05:52:54;;;;;;;60.97;26.10;;;0.20;99.90;;;;;;5079101;28;20116;-76
2023/01/25 05:55:19;;;;;;;59.20;25.48;;;2.20;99.90;;;;;;5098595;28;20098;-77
2023/01/25 05:57:45;;;;;;;60.83;26.00;;;0.10;99.90;;;;;;5099997;28;20051;-75
2023/01/25 06:00:11;;;;;;;57.92;24.73;;;2.80;99.90;;;;;;5065980;28;20209;-75
2023/01/25 06:02:37;;;;;;;63.25;26.17;;;0.10;99.90;;;;;;5083340;28;20101;-75
2023/01/25 06:05:06;;;;;;;58.25;25.25;;;0.10;99.90;;;;;;5048588;28;20024;-75
2023/01/25 06:07:35;;;;;;;56.85;25.83;;;0.40;99.90;;;;;;5067468;28;20099;-75
2023/01/25 06:10:03;;;;;;;64.65;28.48;;;1.60;99.90;;;;;;5100547;28;20100;-76
2023/01/25 06:12:28;;;;;;;58.70;26.75;;;0.40;99.90;;;;;;5066381;28;20031;-76
2023/01/25 06:14:57;;;;;;;56.42;25.70;;;0.20;99.90;;;;;;5083189;28;20066;-76
2023/01/25 06:17:22;;;;;;;59.83;26.92;;;2.70;99.90;;;;;;5066535;28;20044;-76
2023/01/25 06:19:48;;;;;;;62.75;26.40;;;0.30;99.90;;;;;;5082837;28;20028;-76
2023/01/25 06:22:14;;;;;;;59.75;25.17;;;0.20;99.90;;;;;;5062835;28;20323;-76
2023/01/25 06:24:39;;;;;;;56.33;25.65;;;2.90;99.90;;;;;;5062887;28;20341;-76
2023/01/25 06:27:07;;;;;;;61.78;25.73;;;0.20;99.90;;;;;;5099900;28;20032;-76
2023/01/25 06:29:33;;;;;;;58.78;26.55;;;0.30;99.90;;;;;;5082422;28;20067;-76
2023/01/25 06:31:59;;;;;;;63.72;26.80;;;2.40;99.90;;;;;;5064107;28;20205;-76
2023/01/25 06:34:25;;;;;;;67.40;31.45;;;0.30;99.90;;;;;;5059129;28;20222;-76
2023/01/25 06:36:51;;;;;;;61.63;27.17;;;0.20;99.90;;;;;;5065440;28;20051;-76
2023/01/25 06:39:25;;;;;;;65.78;28.08;;;2.10;99.90;;;;;;5083275;28;20384;-77
2023/01/25 06:41:55;;;;;;;59.40;25.83;;;0.20;99.90;;;;;;5050418;28;20036;-76
2023/01/25 06:44:39;;;;;;;;;;;;;;;;;;;;;
2023/01/25 06:47:08;;;;;;;56.40;24.92;;;1.30;99.90;;;;;;5085126;28;20094;-76
2023/01/25 06:49:34;;;;;;;68.35;28.25;;;2.60;99.90;;;;;;5099823;28;20028;-76
2023/01/25 06:52:00;;;;;;;63.38;27.33;;;0.00;99.90;;;;;;5083283;28;20032;-76
2023/01/25 06:54:26;;;;;;;63.95;29.13;;;0.10;99.90;;;;;;5099281;28;20632;-76
2023/01/25 06:57:15;;;;;;;62.17;27.40;;;0.10;99.90;;;;;;5099878;28;20024;-75
2023/01/25 06:59:41;;;;;;;66.57;28.48;;;0.10;99.90;;;;;;5082675;28;20089;-75
2023/01/25 07:02:13;;;;;;;60.67;27.65;;;0.00;99.90;;;;;;5081927;28;20020;-76
2023/01/25 07:04:38;;;;;;;64.28;29.88;;;0.00;99.90;;;;;;5098693;28;20040;-75
2023/01/25 07:07:22;;;;;;;66.80;31.40;;;0.90;99.90;;;;;;5063995;28;20183;-74
2023/01/25 07:09:53;;;;;;;59.45;27.27;;;1.40;99.90;;;;;;5082685;28;20039;-75
2023/01/25 07:12:36;;;;;;;54.05;25.38;;;-0.10;99.90;;;;;;5056254;28;20039;-76
2023/01/25 07:15:04;;;;;;;64.22;27.73;;;0.00;99.90;;;;;;5064034;28;20024;-76
2023/01/25 07:17:30;;;;;;;58.70;26.40;;;-0.10;99.90;;;;;;5089471;28;20036;-75
2023/01/25 07:19:58;;;;;;;60.28;26.98;;;-0.10;99.90;;;;;;5066043;28;20032;-74
2023/01/25 07:23:33;;;;;;;55.03;25.77;;;0.10;99.90;;;;;;5081275;28;20051;-75
2023/01/25 07:26:22;;;;;;;57.25;23.40;;;-0.20;99.90;;;;;;4987288;28;20046;-76
2023/01/25 07:28:55;;;;;;;52.05;23.00;;;-0.30;99.90;;;;;;5079602;28;20063;-77
2023/01/25 07:31:22;;;;;;;49.97;22.40;;;1.30;99.90;;;;;;5076207;28;20036;-75
2023/01/25 07:33:52;;;;;;;53.85;23.13;;;0.10;99.90;;;;;;5099641;28;20040;-75
2023/01/25 07:36:25;;;;;;;54.80;24.73;;;0.90;99.90;;;;;;5081983;28;20032;-75
2023/01/25 07:39:21;;;;;;;60.55;25.88;;;-0.30;99.90;;;;;;5098002;28;20199;-76
2023/01/25 07:41:46;;;;;;;54.55;22.67;;;0.40;99.90;;;;;;5061749;28;20226;-75
2023/01/25 07:44:12;;;;;;;57.63;25.88;;;-0.50;99.90;;;;;;5098216;28;20099;-75
2023/01/25 07:46:38;;;;;;;57.95;23.90;;;-0.20;99.90;;;;;;5065321;28;20103;-75
2023/01/25 07:52:19;;;;;;;53.75;24.33;;;-0.80;99.90;;;;;;5086294;28;20031;-75
2023/01/25 07:54:48;;;;;;;59.00;25.77;;;0.00;99.90;;;;;;5079682;28;20221;-75
2023/01/25 07:57:14;;;;;;;59.97;25.80;;;0.30;99.90;;;;;;5079786;28;20032;-75
2023/01/25 07:59:52;;;;;;;58.42;24.98;;;3.20;99.90;;;;;;5098788;28;20032;-74
2023/01/25 08:02:17;;;;;;;59.05;24.27;;;0.00;99.90;;;;;;5065678;28;20032;-75
2023/01/25 08:04:44;;;;;;;64.88;29.90;;;;;;;;;;5081871;28;20269;-74
2023/01/25 08:07:11;;;;;;;59.78;26.75;;;-0.30;99.90;;;;;;5081130;28;20028;-75
2023/01/25 08:09:36;;;;;;;58.00;26.17;;;-0.20;99.90;;;;;;5080978;28;20036;-73
2023/01/25 08:12:06;;;;;;;57.00;25.38;;;-0.10;99.90;;;;;;5065039;28;20048;-77
2023/01/25 08:14:32;;;;;;;57.78;25.15;;;-0.20;99.90;;;;;;5081352;28;20038;-76
2023/01/25 08:17:13;;;;;;;60.05;27.35;;;-0.20;99.90;;;;;;5079919;28;20291;-75
2023/01/25 08:19:39;;;;;;;54.92;24.90;;;2.50;99.90;;;;;;5064449;28;20028;-75
2023/01/25 08:22:13;;;;;;;50.83;24.05;;;-0.20;99.90;;;;;;5047749;28;20046;-74
2023/01/25 08:24:44;;;;;;;50.97;22.92;;;1.80;99.90;;;;;;5081488;28;20024;-75
2023/01/25 08:27:16;;;;;;;51.80;23.85;;;0.10;99.90;;;;;;5081256;28;20020;-75
2023/01/25 08:29:45;;;;;;;49.10;23.73;;;1.10;99.90;;;;;;5073578;28;20085;-75
2023/01/25 08:32:10;;;;;;;42.10;21.00;;;-0.20;99.90;;;;;;5092707;28;20059;-74
2023/01/25 08:34:44;;;;;;;46.08;24.02;;;0.20;99.90;;;;;;5098702;28;20210;-73
2023/01/25 08:37:10;;;;;;;47.03;22.10;;;2.10;99.90;;;;;;5067592;28;20020;-73
2023/01/25 08:39:44;;;;;;;43.85;21.80;;;-0.20;99.90;;;;;;5063047;28;20036;-74
2023/01/25 08:42:12;;;;;;;46.95;21.20;;;2.00;99.90;;;;;;5061192;28;20031;-73
2023/01/25 08:44:58;;;;;;;44.08;20.23;;;2.50;99.90;;;;;;5092775;28;20039;-74
2023/01/25 08:47:25;;;;;;;49.95;22.55;;;2.40;99.90;;;;;;5088365;28;20060;-73
2023/01/25 08:49:57;;;;;;;46.40;22.38;;;-0.30;99.90;;;;;;5095000;28;20226;-73
2023/01/25 08:52:23;;;;;;;47.03;21.92;;;;;;;;;;5079600;28;20059;-75
2023/01/25 08:54:51;;;;;;;46.58;21.10;;;-0.20;99.90;;;;;;5077664;28;20043;-73
2023/01/25 08:57:22;;;;;;;44.25;20.95;;;-0.30;99.90;;;;;;5079437;28;20035;-73
2023/01/25 08:59:48;;;;;;;47.40;23.10;;;-0.30;99.90;;;;;;5075856;28;20227;-73
2023/01/25 09:02:40;;;;;;;49.67;24.60;;;1.70;99.90;;;;;;5060752;28;20029;-74
2023/01/25 09:05:08;;;;;;;47.97;22.42;;;2.10;99.90;;;;;;5058483;28;20032;-75
2023/01/25 09:07:37;;;;;;;49.20;24.55;;;0.10;99.90;;;;;;5074038;28;20036;-69
2023/01/25 09:10:07;;;;;;;51.97;25.02;;;-0.10;99.90;;;;;;5061426;28;20332;-74
2023/01/25 09:16:29;;;;;;;47.10;22.02;;;-0.40;99.90;;;;;;5048371;28;20043;-73
2023/01/25 09:19:00;;;;;;;56.72;25.65;;;1.40;99.90;;;;;;5076146;28;20051;-73
2023/01/25 09:21:26;;;;;;;50.65;23.30;;;-0.10;99.90;;;;;;5094159;28;20039;-74
2023/01/25 09:23:53;;;;;;;51.33;23.75;;;-0.30;99.90;;;;;;5083099;28;20055;-75
2023/01/25 09:26:19;;;;;;;55.78;24.60;;;-0.70;99.90;;;;;;5098705;28;20039;-74
2023/01/25 09:28:52;;;;;;;51.88;24.60;;;0.90;99.90;;;;;;5077206;28;20046;-74
2023/01/25 09:31:19;;;;;;;51.75;24.00;;;-0.40;99.90;;;;;;5081940;28;20036;-74
2023/01/25 09:33:45;;;;;;;49.92;23.02;;;-0.10;99.90;;;;;;5083845;28;20388;-74
2023/01/25 09:36:11;;;;;;;48.25;21.58;;;0.40;99.90;;;;;;5097985;28;20130;-74
2023/01/25 09:38:37;;;;;;;54.92;24.88;;;2.00;99.90;;;;;;5078539;28;20036;-72
2023/01/25 09:41:27;;;;;;;54.20;26.67;;;2.00;99.90;;;;;;5080680;28;20032;-73
2023/01/25 09:44:24;;;;;;;52.45;24.27;;;-0.20;99.90;;;;;;5079425;28;20032;-73
2023/01/25 09:47:01;;;;;;;57.03;26.15;;;0.00;99.90;;;;;;5073103;28;20146;-74
2023/01/25 09:49:57;;;;;;;56.05;25.27;;;0.00;99.90;;;;;;5079410;28;20381;-72
2023/01/25 09:52:31;;;;;;;51.55;23.35;;;-0.10;99.90;;;;;;5091378;28;20027;-73
2023/01/25 09:54:57;;;;;;;54.35;23.50;;;-0.10;99.90;;;;;;5089257;28;20113;-74
2023/01/25 09:57:30;;;;;;;50.67;24.15;;;-0.10;99.90;;;;;;5092990;28;20051;-73
2023/01/25 10:00:04;;;;;;;51.15;23.33;;;-0.10;99.90;;;;;;5079021;28;20488;-73
2023/01/25 10:02:45;;;;;;;54.63;24.80;;;-0.20;99.90;;;;;;5068201;28;20312;-73
2023/01/25 10:05:23;;;;;;;51.97;22.92;;;-0.10;99.90;;;;;;5089956;28;20036;-73
2023/01/25 10:08:05;;;;;;;52.10;23.23;;;-0.30;99.90;;;;;;5088277;28;20681;-73
2023/01/25 10:10:41;;;;;;;57.63;24.05;;;-0.20;99.90;;;;;;5078457;28;20322;-74
2023/01/25 10:13:20;;;;;;;57.67;24.60;;;-0.20;99.90;;;;;;5082156;28;20027;-74
2023/01/25 10:16:00;;;;;;;54.33;22.83;;;1.60;99.90;;;;;;5096813;28;20099;-74
2023/01/25 10:19:34;;;;;;;54.53;23.83;;;0.10;99.90;;;;;;5051836;28;20078;-73
2023/01/25 10:22:10;;;;;;;54.38;22.35;;;-0.20;99.90;;;;;;5066347;28;20065;-74
2023/01/25 10:24:53;;;;;;;61.15;25.52;;;-1.80;99.90;;;;;;5085139;28;20037;-74
2023/01/25 10:27:31;;;;;;;56.95;25.08;;;0.10;99.90;;;;;;5084580;28;20032;-75
2023/01/25 10:30:01;;;;;;;52.47;22.85;;;0.10;99.90;;;;;;5080301;28;20073;-74
2023/01/25 10:32:33;;;;;;;50.05;19.55;;;1.20;99.90;;;;;;5092617;28;20401;-74
2023/01/25 10:35:20;;;;;;;47.90;20.45;;;0.10;99.90;;;;;;5095115;28;20099;-73
2023/01/25 10:37:46;;;;;;;57.05;24.15;;;1.60;99.90;;;;;;5090849;28;20114;-74
2023/01/25 10:40:24;;;;;;;49.63;21.00;;;0.10;99.90;;;;;;5090530;28;20095;-74
2023/01/25 10:42:59;;;;;;;54.05;22.33;;;0.10;99.90;;;;;;5093677;28;20154;-74
2023/01/25 10:45:59;;;;;;;;;;;;;;;;;;;;;
2023/01/25 10:48:32;;;;;;;52.13;21.92;;;1.80;99.90;;;;;;5041445;28;20097;-74
2023/01/25 10:50:58;;;;;;;56.53;24.35;;;0.00;99.90;;;;;;5095361;28;20063;-74
2023/01/25 10:53:31;;;;;;;52.47;23.25;;;0.10;99.90;;;;;;5056086;28;20241;-73
2023/01/25 10:56:05;;;;;;;53.70;23.88;;;-0.10;99.90;;;;;;5076213;28;20116;-74
2023/01/25 10:58:39;;;;;;;53.28;22.85;;;0.30;99.90;;;;;;5086006;28;20212;-75
2023/01/25 11:01:11;;;;;;;59.78;23.60;;;0.20;99.90;;;;;;5095887;28;20051;-75
2023/01/25 11:03:43;;;;;;;59.45;23.02;;;1.20;99.90;;;;;;5088664;28;20051;-74
2023/01/25 11:06:09;;;;;;;55.92;23.40;;;2.00;99.90;;;;;;5079772;28;20121;-75
2023/01/25 11:08:37;;;;;;;52.38;23.08;;;0.60;99.90;;;;;;5079396;28;20039;-75
2023/01/25 11:11:24;;;;;;;48.17;21.63;;;2.40;99.90;;;;;;5079499;28;20339;-74
2023/01/25 11:13:51;;;;;;;50.05;22.05;;;0.30;99.90;;;;;;5095816;28;20043;-73
2023/01/25 11:16:33;;;;;;;55.63;22.65;;;0.40;99.90;;;;;;5077500;28;20051;-75
2023/01/25 11:25:24;;;;;;;61.90;24.05;;;-1.80;99.90;;;;;;5041117;28;20128;-73
2023/01/25 11:28:13;;;;;;;56.22;23.33;;;0.70;99.90;;;;;;5053506;28;20135;-73
2023/01/25 11:30:38;;;;;;;50.33;22.00;;;0.60;99.90;;;;;;5051273;28;20064;-74
2023/01/25 11:33:10;;;;;;;57.08;23.98;;;0.40;99.90;;;;;;5035021;28;20036;-74
2023/01/25 11:35:39;;;;;;;56.78;22.90;;;0.50;99.90;;;;;;5053790;28;20273;-74
2023/01/25 11:38:15;;;;;;;57.78;23.08;;;0.60;99.90;;;;;;5037798;28;20044;-74
2023/01/25 11:41:17;;;;;;;53.28;23.27;;;1.90;99.90;;;;;;5057362;28;20036;-74
2023/01/25 11:43:46;;;;;;;54.88;22.52;;;0.50;99.90;;;;;;5050353;28;20134;-74
2023/01/25 11:46:36;;;;;;;49.25;21.05;;;0.50;99.90;;;;;;5068223;28;20028;-74
2023/01/25 11:49:38;;;;;;;53.80;22.58;;;0.60;99.90;;;;;;5030972;28;20028;-74
2023/01/25 11:52:41;;;;;;;69.65;28.58;;;0.70;99.90;;;;;;5051414;28;20029;-75
2023/01/25 11:55:46;;;;;;;58.13;22.48;;;1.40;99.90;;;;;;5065762;28;20860;-74
2023/01/25 11:58:14;;;;;;;52.53;21.70;;;0.60;99.90;;;;;;5046455;28;20044;-74
2023/01/25 12:00:55;;;;;;;58.05;23.55;;;1.40;99.90;;;;;;5089076;28;20114;-75
2023/01/25 12:03:35;;;;;;;60.55;23.63;;;0.60;99.90;;;;;;5072185;28;20329;-74
2023/01/25 12:06:36;;;;;;;53.65;23.40;;;0.70;99.90;;;;;;5091428;28;20463;-75
2023/01/25 12:09:08;;;;;;;50.33;21.95;;;0.80;99.90;;;;;;5061205;28;20090;-74
2023/01/25 12:11:58;;;;;;;55.65;22.63;;;3.00;99.90;;;;;;5092701;28;20042;-74
2023/01/25 12:14:42;;;;;;;55.88;22.83;;;0.90;99.90;;;;;;5090117;28;20322;-75
2023/01/25 12:17:21;;;;;;;54.50;22.13;;;0.80;99.90;;;;;;5076446;28;20034;-76
2023/01/25 12:20:06;;;;;;;58.45;23.65;;;0.80;99.90;;;;;;5072388;28;20028;-74
2023/01/25 12:22:53;;;;;;;52.92;21.02;;;0.90;99.90;;;;;;5073749;28;20036;-75
2023/01/25 12:25:41;;;;;;;57.10;22.55;;;0.90;99.90;;;;;;5067614;28;20048;-74
2023/01/25 12:28:27;;;;;;;;;;;;;;;;;;;;;
2023/01/25 12:31:46;;;;;;;50.50;21.40;;;1.00;99.90;;;;;;5083754;28;20044;-74
2023/01/25 12:34:20;;;;;;;50.78;20.00;;;0.90;99.90;;;;;;5019359;28;20053;-76
2023/01/25 12:37:18;;;;;;;51.90;19.58;;;0.80;99.90;;;;;;5072972;28;20040;-75
2023/01/25 12:39:58;;;;;;;43.30;16.50;;;2.00;99.90;;;;;;5073925;28;20035;-75
2023/01/25 12:42:33;;;;;;;56.47;21.80;;;3.50;99.90;;;;;;5088023;28;20112;-74
2023/01/25 12:45:03;;;;;;;59.20;23.17;;;0.70;99.90;;;;;;5073196;28;20098;-74
2023/01/25 12:47:36;;;;;;;51.63;21.00;;;1.00;99.90;;;;;;5074303;28;20043;-74
2023/01/25 12:50:17;;;;;;;57.88;21.83;;;0.90;99.90;;;;;;5074184;28;20036;-74
2023/01/25 12:53:29;;;;;;;51.38;20.33;;;0.80;99.90;;;;;;5074328;28;20094;-74
2023/01/25 12:56:35;;;;;;;47.33;19.35;;;0.70;99.90;;;;;;5062835;28;20040;-74
2023/01/25 12:59:17;;;;;;;;;;;1.50;99.90;;;;;;5089489;28;20043;-74
2023/01/25 13:01:56;;;;;;;58.38;21.88;;;0.80;99.90;;;;;;5074162;28;19947;-74
2023/01/25 13:04:51;;;;;;;59.78;21.85;;;1.00;99.90;;;;;;5072455;28;20027;-75
2023/01/25 13:07:38;;;;;;;46.47;17.52;;;1.70;99.90;;;;;;5074930;28;20032;-74
2023/01/25 13:10:16;;;;;;;53.40;20.50;;;1.00;99.90;;;;;;5091021;28;20024;-75
2023/01/25 13:12:56;;;;;;;58.50;21.20;;;0.80;99.90;;;;;;5089974;28;20589;-74
2023/01/25 13:16:14;;;;;;;;;;;;;;;;;;;;;
2023/01/25 13:22:46;;;;;;;54.10;20.20;;;1.90;99.90;;;;;;5005251;28;20042;-75
2023/01/25 13:25:15;;;;;;;47.35;19.48;;;-0.80;99.90;;;;;;5078506;28;20311;-74
2023/01/25 13:27:40;;;;;;;53.80;20.33;;;1.50;99.90;;;;;;5110281;27;20075;-75
2023/01/25 13:30:15;;;;;;;54.95;21.25;;;0.90;99.90;;;;;;5092301;28;20246;-74
2023/01/25 13:32:50;;;;;;;48.25;18.63;;;2.90;99.90;;;;;;5077471;28;20055;-74
2023/01/25 13:35:41;;;;;;;55.88;21.20;;;0.90;99.90;;;;;;5092605;28;20311;-73
2023/01/25 13:38:07;;;;;;;54.20;20.48;;;1.10;99.90;;;;;;5095095;28;20043;-73
2023/01/25 13:40:36;;;;;;;50.67;19.42;;;1.00;99.90;;;;;;5090059;28;20142;-74
2023/01/25 13:43:11;;;;;;;46.28;18.95;;;1.00;99.90;;;;;;5092476;28;20109;-73
2023/01/25 13:45:37;;;;;;;;;;;1.00;99.90;;;;;;5090422;28;20032;-74
2023/01/25 13:48:23;;;;;;;54.15;19.88;;;1.10;99.90;;;;;;5091481;28;19916;-75
2023/01/25 13:51:07;;;;;;;58.67;20.42;;;1.10;99.90;;;;;;5072019;28;20035;-73
2023/01/25 13:54:20;;;;;;;58.03;20.73;;;1.00;99.90;;;;;;5066580;28;20038;-74
2023/01/25 13:57:10;;;;;;;60.42;20.65;;;1.10;99.90;;;;;;5060582;28;20055;-75
2023/01/25 13:59:36;;;;;;;54.15;20.15;;;1.00;99.90;;;;;;5079025;28;20035;-76
2023/01/25 14:02:29;;;;;;;52.90;20.75;;;0.90;99.90;;;;;;5077106;28;20023;-75
2023/01/25 14:04:58;;;;;;;57.08;20.85;;;0.90;99.90;;;;;;5078681;28;20035;-74
2023/01/25 14:07:31;;;;;;;58.33;20.05;;;2.90;99.90;;;;;;5071662;28;20096;-75
2023/01/25 14:10:01;;;;;;;60.55;22.52;;;3.60;99.90;;;;;;5076048;28;21093;-74